Time;durP1;ratioP1;P1;durP2;ratioP2;P2;SDS_P1;SDS_P2;PMS_P1;PMS_P2;Temp;Humidity;BMP_temperature;BMP_pressure;BME280_temperature;BME280_humidity;BME280_pressure;Samples;Min_cycle;Max_cycle;Signal;HPM_P1;HPM_P2
2022/10/15 00:01:36;;;;;;;58.58;40.25;;;;;;;15.78;100.00;99708.72;5072117;28;20079;-75
2022/10/15 00:04:01;;;;;;;61.85;40.05;;;;;;;15.71;100.00;99702.41;5071945;28;20043;-77
2022/10/15 00:06:27;;;;;;;63.72;39.70;;;;;;;15.72;100.00;99706.75;5072053;28;20036;-76
2022/10/15 00:08:52;;;;;;;56.65;38.65;;;;;;;15.71;100.00;99701.56;5071564;28;20044;-76
2022/10/15 00:11:24;;;;;;;62.95;41.13;;;;;;;15.72;100.00;99709.41;5075725;28;20042;-75
2022/10/15 00:13:53;;;;;;;63.08;40.20;;;;;;;15.69;100.00;99709.72;5071071;28;20119;-76
2022/10/15 00:16:21;;;;;;;62.70;39.75;;;;;;;15.59;100.00;99709.09;5068234;28;20033;-77
2022/10/15 00:18:47;;;;;;;59.78;39.70;;;;;;;15.58;100.00;99704.78;5069369;28;20135;-76
2022/10/15 00:21:14;;;;;;;61.22;39.92;;;;;;;15.61;100.00;99707.06;5071194;28;20043;-73
2022/10/15 00:23:40;;;;;;;58.92;39.08;;;;;;;15.63;100.00;99707.75;5071862;28;20448;-75
2022/10/15 00:26:09;;;;;;;61.13;40.17;;;;;;;15.67;100.00;99711.72;5072468;28;20064;-74
2022/10/15 00:28:34;;;;;;;70.63;44.00;;;;;;;15.67;100.00;99711.72;5072446;28;20086;-77
2022/10/15 00:31:02;;;;;;;64.55;42.15;;;;;;;15.59;100.00;99714.41;5071880;28;20036;-74
2022/10/15 00:33:28;;;;;;;63.80;41.60;;;;;;;15.54;100.00;99722.09;5072231;28;20025;-77
2022/10/15 00:36:25;;;;;;;66.60;42.30;;;;;;;15.53;100.00;99720.41;5070127;28;20451;-76
2022/10/15 00:38:50;;;;;;;66.32;42.72;;;;;;;15.54;100.00;99714.94;5063805;28;20032;-76
2022/10/15 00:41:31;;;;;;;61.95;41.88;;;;;;;15.55;100.00;99718.44;5069449;28;20427;-76
2022/10/15 00:44:00;;;;;;;69.10;42.55;;;;;;;15.50;100.00;99720.72;5067632;28;20477;-75
2022/10/15 00:46:38;;;;;;;68.22;43.95;;;;;;;15.54;100.00;99712.28;5071804;28;20089;-76
2022/10/15 00:49:20;;;;;;;67.93;42.13;;;;;;;15.55;100.00;99713.13;5074663;28;20028;-75
2022/10/15 00:51:51;;;;;;;59.10;41.85;;;;;;;15.60;100.00;99708.09;5071319;28;20107;-77
2022/10/15 00:54:19;;;;;;;66.85;42.30;;;;;;;15.63;100.00;99710.41;5068361;28;20430;-76
2022/10/15 00:56:46;;;;;;;67.95;42.80;;;;;;;15.63;100.00;99710.41;5070125;28;20067;-76
2022/10/15 00:59:14;;;;;;;68.18;43.38;;;;;;;15.64;100.00;99704.09;5070277;28;20032;-76
2022/10/15 01:01:40;;;;;;;66.20;43.45;;;;;;;15.63;100.00;99710.41;5071087;28;20044;-76
2022/10/15 01:04:07;;;;;;;67.47;42.53;;;;;;;15.65;100.00;99707.59;5071560;28;20039;-76
2022/10/15 01:06:32;;;;;;;69.68;44.05;;;;;;;15.66;100.00;99709.25;5071140;28;20036;-77
2022/10/15 01:08:59;;;;;;;69.15;44.03;;;;;;;15.66;100.00;99709.25;5071317;28;20101;-76
2022/10/15 01:11:34;;;;;;;66.82;42.90;;;;;;;15.62;100.00;99708.75;5071156;28;20082;-76
2022/10/15 01:14:26;;;;;;;69.80;41.35;;;;;;;15.66;100.00;99704.75;5068356;28;20044;-77
2022/10/15 01:17:03;;;;;;;63.60;42.15;;;;;;;15.67;100.00;99701.06;5067540;28;20040;-77
2022/10/15 01:20:14;;;;;;;71.35;44.00;;;;;;;15.67;100.00;99700.28;5069934;28;20511;-77
2022/10/15 01:23:19;;;;;;;71.50;45.05;;;;;;;15.66;100.00;99691.47;5068891;28;20111;-77
2022/10/15 01:25:50;;;;;;;70.80;45.67;;;;;;;15.69;100.00;99688.44;5072580;28;20032;-77
2022/10/15 01:28:36;;;;;;;71.85;44.53;;;;;;;15.71;100.00;99686.44;5070079;28;20024;-76
2022/10/15 01:31:11;;;;;;;69.53;44.25;;;;;;;15.70;100.00;99681.28;5068919;28;20036;-75
2022/10/15 01:34:02;;;;;;;69.32;43.40;;;;;;;15.69;100.00;99675.13;5069287;28;20024;-76
2022/10/15 01:36:34;;;;;;;;;;;;;;;15.69;100.00;99672.47;5069645;28;20491;-75
2022/10/15 01:39:15;;;;;;;78.03;44.78;;;;;;;15.69;100.00;99674.31;5069617;28;19919;-77
2022/10/15 01:41:46;;;;;;;76.70;45.05;;;;;;;15.68;100.00;99684.13;5068788;28;20040;-76
2022/10/15 01:44:19;;;;;;;80.53;46.47;;;;;;;15.71;100.00;99669.66;5069348;28;20039;-76
2022/10/15 01:47:06;;;;;;;72.70;44.58;;;;;;;15.69;100.00;99677.81;5072314;28;20400;-77
2022/10/15 01:49:40;;;;;;;70.97;44.05;;;;;;;15.70;100.00;99671.47;5069281;28;20550;-75
2022/10/15 01:52:12;;;;;;;75.38;46.58;;;;;;;15.70;100.00;99666.16;5070362;28;20056;-77
2022/10/15 01:54:39;;;;;;;70.50;45.78;;;;;;;15.71;100.00;99667.00;5070505;28;20115;-77
2022/10/15 01:57:06;;;;;;;77.35;44.95;;;;;;;15.70;100.00;99668.81;5070762;28;20086;-76
2022/10/15 01:59:33;;;;;;;73.60;44.75;;;;;;;15.72;100.00;99666.84;5069307;28;20033;-77
2022/10/15 02:01:59;;;;;;;80.07;47.17;;;;;;;15.71;100.00;99667.00;5069021;28;20612;-77
2022/10/15 02:04:28;;;;;;;80.95;47.80;;;;;;;15.72;100.00;99676.63;5073390;28;20093;-77
2022/10/15 02:07:32;;;;;;;78.18;47.67;;;;;;;15.69;100.00;99680.47;5068328;28;20081;-76
2022/10/15 02:10:06;;;;;;;75.90;46.42;;;;;;;15.65;100.00;99678.31;5066759;28;20033;-77
2022/10/15 02:12:37;;;;;;;77.97;46.97;;;;;;;15.67;100.00;99674.47;5068987;28;20515;-77
2022/10/15 02:15:33;;;;;;;72.72;44.35;;;;;;;15.67;100.00;99674.47;5070410;28;20119;-75
2022/10/15 02:18:34;;;;;;;72.78;43.50;;;;;;;15.61;100.00;99664.53;5066512;28;20093;-76
2022/10/15 02:21:52;;;;;;;70.90;43.22;;;;;;;15.58;100.00;99667.53;5067306;28;20090;-76
2022/10/15 02:24:24;;;;;;;69.38;44.15;;;;;;;15.60;100.00;99670.03;5031641;28;20120;-76
2022/10/15 02:26:54;;;;;;;63.55;40.65;;;;;;;15.56;100.00;99656.22;5047299;28;20071;-76
2022/10/15 02:29:22;;;;;;;59.03;39.30;;;;;;;15.53;100.00;99652.09;5056349;28;20045;-75
2022/10/15 02:31:49;;;;;;;67.03;40.50;;;;;;;15.52;100.00;99650.44;5041945;28;20602;-76
2022/10/15 02:34:18;;;;;;;67.57;41.90;;;;;;;15.51;100.00;99640.75;5067575;28;20037;-76
2022/10/15 02:36:45;;;;;;;68.18;43.28;;;;;;;15.51;100.00;99642.59;5067205;28;20068;-76
2022/10/15 02:39:14;;;;;;;68.13;43.95;;;;;;;15.48;100.00;99649.09;5067802;28;21417;-76
2022/10/15 02:41:40;;;;;;;87.85;45.88;;;;;;;15.42;100.00;99638.31;5070127;28;20496;-76
2022/10/15 02:44:09;;;;;;;65.28;42.05;;;;;;;15.46;100.00;99642.28;5068840;28;20105;-76
2022/10/15 02:46:35;;;;;;;70.53;44.25;;;;;;;15.45;100.00;99653.91;5067486;28;20476;-75
2022/10/15 02:49:00;;;;;;;65.47;41.40;;;;;;;15.38;100.00;99643.13;5063641;28;20115;-73
2022/10/15 02:51:31;;;;;;;66.60;42.20;;;;;;;15.40;100.00;99653.59;5066839;28;20463;-74
2022/10/15 02:53:59;;;;;;;66.78;41.70;;;;;;;15.44;100.00;99654.91;5066948;28;20044;-74
2022/10/15 02:56:25;;;;;;;76.78;43.55;;;;;;;15.46;100.00;99644.94;5068663;28;20071;-74
2022/10/15 02:58:51;;;;;;;71.35;43.22;;;;;;;15.47;100.00;99646.59;5068342;28;20060;-74
2022/10/15 03:01:17;;;;;;;70.35;41.13;;;;;;;15.45;100.00;99653.91;5069050;28;20059;-74
2022/10/15 03:03:43;;;;;;;66.68;43.85;;;;;;;15.46;100.00;99655.59;5069713;28;20446;-74
2022/10/15 03:06:08;;;;;;;76.95;45.60;;;;;;;15.42;100.00;99654.28;5051581;28;20486;-77
2022/10/15 03:08:34;;;;;;;69.65;44.22;;;;;;;15.39;100.00;99654.59;5068053;28;20072;-77
2022/10/15 03:11:02;;;;;;;78.95;45.88;;;;;;;15.37;100.00;99656.63;5068575;28;20059;-76
2022/10/15 03:13:28;;;;;;;69.10;43.78;;;;;;;15.34;100.00;99654.28;5068607;28;20024;-74
2022/10/15 03:15:54;;;;;;;69.40;44.10;;;;;;;15.27;100.00;99659.44;5068339;28;20028;-76
2022/10/15 03:18:21;;;;;;;71.95;43.53;;;;;;;15.23;100.00;99655.50;5068689;28;20029;-77
2022/10/15 03:20:54;;;;;;;72.45;43.90;;;;;;;15.19;100.00;99648.03;5066784;28;20032;-75
2022/10/15 03:23:19;;;;;;;70.95;44.60;;;;;;;15.14;100.00;99645.84;5064741;28;20033;-76
2022/10/15 03:25:45;;;;;;;73.85;43.33;;;;;;;15.14;100.00;99640.53;5067916;28;20039;-77
2022/10/15 03:28:17;;;;;;;70.30;44.30;;;;;;;15.09;100.00;99646.38;5065355;28;20052;-76
2022/10/15 03:30:43;;;;;;;65.78;44.40;;;;;;;15.08;100.00;99646.53;5067978;28;20055;-76
2022/10/15 03:33:09;;;;;;;70.80;44.25;;;;;;;15.04;100.00;99651.38;5068602;28;20064;-76
2022/10/15 03:35:35;;;;;;;69.60;42.13;;;;;;;15.05;100.00;99652.19;5070554;28;20067;-76
2022/10/15 03:38:00;;;;;;;79.30;42.50;;;;;;;15.00;100.00;99647.41;5071693;28;20021;-76
2022/10/15 03:40:26;;;;;;;72.85;43.63;;;;;;;14.95;100.00;99657.72;5076180;28;20392;-76
2022/10/15 03:42:55;;;;;;;65.97;42.20;;;;;;;14.90;100.00;99654.72;5071310;28;20108;-77
2022/10/15 03:45:23;;;;;;;71.75;44.25;;;;;;;14.87;100.00;99671.00;5072053;28;20071;-76
2022/10/15 03:48:01;;;;;;;69.85;42.60;;;;;;;14.89;100.00;99658.38;5071833;28;20480;-76
2022/10/15 03:50:31;;;;;;;65.10;41.55;;;;;;;14.95;100.00;99657.72;5071647;28;20028;-76
2022/10/15 03:53:02;;;;;;;68.15;45.13;;;;;;;14.97;100.00;99666.31;5071257;28;20087;-76
2022/10/15 03:55:28;;;;;;;75.50;45.20;;;;;;;14.95;100.00;99663.03;5071754;28;20033;-75
2022/10/15 03:57:54;;;;;;;70.78;45.67;;;;;;;14.92;100.00;99666.00;5075498;28;20036;-76
2022/10/15 04:00:19;;;;;;;73.68;43.30;;;;;;;14.98;100.00;99662.66;5073039;28;20039;-74
2022/10/15 04:02:46;;;;;;;69.80;43.50;;;;;;;15.03;100.00;99664.81;5071249;28;20048;-77
2022/10/15 04:05:22;;;;;;;74.40;46.03;;;;;;;15.08;100.00;99663.31;5071353;28;20033;-77
2022/10/15 04:07:52;;;;;;;69.72;44.00;;;;;;;15.13;100.00;99663.66;5070888;28;20048;-76
2022/10/15 04:10:19;;;;;;;66.18;43.65;;;;;;;15.13;100.00;99661.00;5071338;28;20028;-73
2022/10/15 04:12:45;;;;;;;67.57;40.78;;;;;;;15.16;100.00;99667.78;5071145;28;20542;-75
2022/10/15 04:15:14;;;;;;;63.30;41.70;;;;;;;15.18;100.00;99663.16;5071320;28;20025;-75
2022/10/15 04:17:46;;;;;;;67.43;43.25;;;;;;;15.21;100.00;99659.31;5068887;28;20029;-75
2022/10/15 04:20:12;;;;;;;62.03;41.88;;;;;;;15.21;100.00;99661.97;5072404;28;20028;-76
2022/10/15 04:22:41;;;;;;;64.07;43.03;;;;;;;15.23;100.00;99659.97;5070611;28;20534;-76
2022/10/15 04:25:07;;;;;;;64.22;40.90;;;;;;;15.25;100.00;99664.13;5066570;28;20029;-76
2022/10/15 04:27:32;;;;;;;64.72;43.35;;;;;;;15.26;100.00;99654.28;5070890;28;20081;-75
2022/10/15 04:30:06;;;;;;;70.65;42.80;;;;;;;15.23;100.00;99658.16;5071127;28;20100;-76
2022/10/15 04:32:33;;;;;;;65.18;41.97;;;;;;;15.22;100.00;99658.31;5070526;28;20032;-75
2022/10/15 04:34:59;;;;;;;70.30;41.13;;;;;;;15.07;100.00;99656.38;5070354;28;20035;-77
2022/10/15 04:37:43;;;;;;;58.45;40.15;;;;;;;15.09;100.00;99658.81;5059006;28;20376;-76
2022/10/15 04:40:09;;;;;;;61.72;40.22;;;;;;;15.14;100.00;99653.81;5070169;28;20037;-75
2022/10/15 04:42:35;;;;;;;59.78;39.83;;;;;;;15.16;100.00;99650.00;5069872;28;20524;-75
2022/10/15 04:45:00;;;;;;;62.38;39.97;;;;;;;15.19;100.00;99646.19;5071443;28;20166;-75
2022/10/15 04:47:26;;;;;;;60.95;39.63;;;;;;;15.19;100.00;99637.41;5069499;28;20035;-75
2022/10/15 04:50:04;;;;;;;63.05;40.67;;;;;;;15.20;100.00;99645.19;5069974;28;20198;-75
2022/10/15 04:52:50;;;;;;;63.90;40.40;;;;;;;15.10;100.00;99653.34;5066711;28;20495;-75
2022/10/15 04:55:16;;;;;;;69.28;41.72;;;;;;;14.97;100.00;99645.06;5070716;28;20036;-75
2022/10/15 04:57:41;;;;;;;72.88;42.55;;;;;;;14.86;100.00;99642.75;5052946;28;20047;-75
2022/10/15 05:00:08;;;;;;;69.53;43.22;;;;;;;14.76;100.00;99652.75;5069392;28;20032;-75
2022/10/15 05:02:52;;;;;;;70.50;43.03;;;;;;;14.69;100.00;99654.41;5069110;28;20539;-74
2022/10/15 05:05:23;;;;;;;76.32;43.17;;;;;;;14.63;100.00;99644.44;5066827;28;20043;-75
2022/10/15 05:07:58;;;;;;;72.07;45.50;;;;;;;14.60;100.00;99652.75;5049385;28;20047;-75
2022/10/15 05:10:24;;;;;;;74.22;44.20;;;;;;;14.66;100.00;99638.81;5069532;28;20457;-73
2022/10/15 05:12:50;;;;;;;82.15;48.03;;;;;;;14.67;100.00;99648.41;5069192;28;20049;-75
2022/10/15 05:15:20;;;;;;;78.25;45.72;;;;;;;14.62;100.00;99656.03;5067507;28;20032;-75
2022/10/15 05:17:45;;;;;;;73.85;45.33;;;;;;;14.61;100.00;99649.91;5070609;28;20033;-74
2022/10/15 05:20:11;;;;;;;72.13;45.00;;;;;;;14.58;100.00;99652.06;5069354;28;20090;-75
2022/10/15 05:22:36;;;;;;;69.35;44.53;;;;;;;14.59;100.00;99645.78;5071531;28;20485;-75
2022/10/15 05:25:02;;;;;;;74.00;45.20;;;;;;;14.54;100.00;99637.47;5069458;28;20119;-75
2022/10/15 05:27:30;;;;;;;68.90;42.88;;;;;;;14.54;100.00;99643.63;5066811;28;20048;-74
2022/10/15 05:29:55;;;;;;;71.82;43.88;;;;;;;14.55;100.00;99649.75;5070179;28;20059;-75
2022/10/15 05:32:23;;;;;;;70.13;43.30;;;;;;;14.42;100.00;99649.41;5069093;28;20587;-74
2022/10/15 05:34:50;;;;;;;75.00;44.05;;;;;;;14.41;100.00;99653.91;5068913;28;20027;-74
2022/10/15 05:37:15;;;;;;;67.30;42.53;;;;;;;14.41;100.00;99653.06;5068960;28;20119;-77
2022/10/15 05:39:41;;;;;;;73.97;45.55;;;;;;;14.35;100.00;99657.19;5052115;28;20025;-76
2022/10/15 05:42:09;;;;;;;75.97;45.03;;;;;;;14.38;100.00;99658.69;5072949;28;20029;-75
2022/10/15 05:44:40;;;;;;;71.72;44.92;;;;;;;14.44;100.00;99663.34;5068483;28;20544;-75
2022/10/15 05:47:10;;;;;;;71.55;43.22;;;;;;;14.44;100.00;99668.66;5052291;28;20210;-75
2022/10/15 05:49:38;;;;;;;74.13;44.33;;;;;;;14.49;100.00;99674.31;5068657;28;20032;-75
2022/10/15 05:52:10;;;;;;;69.35;43.15;;;;;;;14.51;100.00;99680.28;5068736;28;20473;-74
2022/10/15 05:54:55;;;;;;;73.18;44.15;;;;;;;14.54;100.00;99682.63;5063347;28;20122;-75
2022/10/15 05:57:21;;;;;;;69.13;43.75;;;;;;;14.59;100.00;99685.59;5070077;28;20158;-75
2022/10/15 05:59:46;;;;;;;80.70;46.60;;;;;;;14.57;100.00;99691.06;5071254;28;20060;-76
2022/10/15 06:02:14;;;;;;;81.15;46.97;;;;;;;14.43;100.00;99683.75;5070094;28;20039;-76
2022/10/15 06:04:41;;;;;;;78.30;47.25;;;;;;;14.37;100.00;99678.25;5069898;28;20077;-76
2022/10/15 06:07:06;;;;;;;77.45;45.65;;;;;;;14.44;100.00;99674.78;5068377;28;20434;-76
2022/10/15 06:09:32;;;;;;;75.97;46.28;;;;;;;14.49;100.00;99682.28;5070061;28;20033;-77
2022/10/15 06:11:57;;;;;;;74.88;45.80;;;;;;;14.45;100.00;99691.56;5069987;28;20396;-77
2022/10/15 06:14:24;;;;;;;75.05;47.55;;;;;;;14.45;100.00;99699.53;5070025;28;20095;-77
2022/10/15 06:16:49;;;;;;;82.70;48.60;;;;;;;14.46;100.00;99690.56;5069658;28;20032;-75
2022/10/15 06:19:15;;;;;;;77.93;48.55;;;;;;;14.45;100.00;99696.88;5073215;28;20025;-76
2022/10/15 06:21:41;;;;;;;82.93;50.90;;;;;;;14.45;100.00;99694.22;5068891;28;20086;-76
2022/10/15 06:24:06;;;;;;;80.07;50.45;;;;;;;14.45;100.00;99691.56;5069483;28;20561;-76
2022/10/15 06:26:31;;;;;;;80.95;48.92;;;;;;;14.41;100.00;99684.91;5069282;28;20491;-77
2022/10/15 06:28:58;;;;;;;87.25;50.47;;;;;;;14.44;100.00;99695.19;5068933;28;20043;-74
2022/10/15 06:31:24;;;;;;;77.53;48.33;;;;;;;14.41;100.00;99684.91;5067942;28;20043;-75
2022/10/15 06:33:49;;;;;;;80.95;49.75;;;;;;;14.40;100.00;99689.41;5069548;28;20033;-75
2022/10/15 06:36:15;;;;;;;79.65;48.60;;;;;;;14.40;100.00;99688.56;5069187;28;20025;-75
2022/10/15 06:38:43;;;;;;;88.25;48.65;;;;;;;14.34;100.00;99696.16;5070505;28;20479;-74
2022/10/15 06:41:08;;;;;;;80.15;48.75;;;;;;;14.35;100.00;99692.53;5064542;28;20032;-75
2022/10/15 06:43:34;;;;;;;82.35;48.45;;;;;;;14.38;100.00;99691.38;5069160;28;20040;-74
2022/10/15 06:46:00;;;;;;;85.30;49.72;;;;;;;14.39;100.00;99689.56;5069138;28;20043;-75
2022/10/15 06:48:26;;;;;;;84.93;50.17;;;;;;;14.40;100.00;99693.88;5069434;28;20032;-75
2022/10/15 06:50:51;;;;;;;88.78;51.28;;;;;;;14.30;100.00;99697.50;5067939;28;20404;-73
2022/10/15 06:53:17;;;;;;;86.68;50.10;;;;;;;14.40;100.00;99699.19;5068534;28;20040;-77
2022/10/15 06:55:42;;;;;;;84.97;52.30;;;;;;;14.40;100.00;99710.63;5067343;28;20032;-77
2022/10/15 06:58:08;;;;;;;97.65;54.47;;;;;;;14.41;100.00;99712.31;5069485;28;20082;-76
2022/10/15 07:00:34;;;;;;;88.68;52.92;;;;;;;14.51;100.00;99712.13;5069076;28;20032;-75
2022/10/15 07:03:04;;;;;;;91.30;54.65;;;;;;;14.53;100.00;99710.16;5069120;28;20047;-76
2022/10/15 07:05:30;;;;;;;93.30;52.07;;;;;;;14.55;100.00;99705.53;5069304;28;20485;-76
2022/10/15 07:07:56;;;;;;;90.30;52.17;;;;;;;14.59;100.00;99712.16;5068627;28;20292;-76
2022/10/15 07:10:24;;;;;;;90.03;53.83;;;;;;;14.61;100.00;99707.50;5071950;28;20028;-76
2022/10/15 07:12:49;;;;;;;90.07;53.17;;;;;;;14.67;100.00;99714.81;5072699;28;20037;-76
2022/10/15 07:15:15;;;;;;;87.25;51.47;;;;;;;14.66;100.00;99726.44;5073270;28;20056;-75
2022/10/15 07:17:49;;;;;;;90.53;53.72;;;;;;;14.65;100.00;99735.41;5076954;28;20024;-76
2022/10/15 07:20:15;;;;;;;81.90;50.70;;;;;;;14.69;100.00;99726.09;5073027;28;20064;-76
2022/10/15 07:22:41;;;;;;;85.80;50.45;;;;;;;14.72;100.00;99737.25;5072604;28;20064;-77
2022/10/15 07:25:08;;;;;;;82.88;51.97;;;;;;;14.69;100.00;99742.03;5073141;28;20078;-77
2022/10/15 07:27:34;;;;;;;82.68;50.55;;;;;;;14.71;100.00;99743.56;5072801;28;20111;-81
2022/10/15 07:29:59;;;;;;;84.38;50.65;;;;;;;14.76;100.00;99748.38;5072539;28;20107;-85
2022/10/15 07:32:25;;;;;;;91.60;51.22;;;;;;;14.82;100.00;99742.41;5072560;28;20052;-84
2022/10/15 07:34:51;;;;;;;88.72;51.95;;;;;;;14.91;100.00;99752.00;5071625;28;20428;-82
2022/10/15 07:37:17;;;;;;;84.47;51.67;;;;;;;15.02;100.00;99753.53;5071297;28;20032;-84
2022/10/15 07:39:42;;;;;;;89.32;51.95;;;;;;;15.09;100.00;99744.72;5072633;28;20089;-82
2022/10/15 07:42:08;;;;;;;96.85;52.22;;;;;;;15.09;100.00;99750.03;5072421;28;20162;-85
2022/10/15 07:44:33;;;;;;;81.65;51.05;;;;;;;15.16;100.00;99750.19;5072672;28;20024;-84
2022/10/15 07:47:00;;;;;;;82.13;49.17;;;;;;;15.24;100.00;99746.69;5073293;28;20093;-84
2022/10/15 07:49:26;;;;;;;88.32;49.72;;;;;;;15.26;100.00;99752.66;5074377;28;20117;-83
2022/10/15 07:51:51;;;;;;;81.95;48.72;;;;;;;15.29;100.00;99755.00;5071552;28;20068;-84
2022/10/15 07:54:17;;;;;;;81.90;49.20;;;;;;;15.40;100.00;99757.31;5072712;28;20071;-81
2022/10/15 07:56:42;;;;;;;84.57;49.65;;;;;;;15.45;100.00;99760.28;5072237;28;20468;-82
2022/10/15 07:59:08;;;;;;;82.20;49.88;;;;;;;15.51;100.00;99759.63;5072479;28;20028;-81
2022/10/15 08:01:33;;;;;;;84.13;50.97;;;;;;;15.57;100.00;99753.66;5071616;28;20119;-79
2022/10/15 08:03:58;;;;;;;84.90;50.85;;;;;;;15.63;100.00;99758.28;5071362;28;20036;-71
2022/10/15 08:06:25;;;;;;;81.18;50.20;;;;;;;15.57;100.00;99770.44;5071883;28;20055;-76
2022/10/15 08:08:51;;;;;;;79.28;48.35;;;;;;;15.50;100.00;99769.41;5071337;28;20040;-72
2022/10/15 08:11:16;;;;;;;78.07;48.60;;;;;;;15.57;100.00;99758.97;5071271;28;20031;-72
2022/10/15 08:13:43;;;;;;;78.90;49.88;;;;;;;15.67;100.00;99759.59;5075144;28;20040;-72
2022/10/15 08:16:10;;;;;;;82.25;50.33;;;;;;;15.79;100.00;99766.22;5071623;28;20033;-72
2022/10/15 08:18:36;;;;;;;85.05;50.15;;;;;;;15.84;100.00;99766.56;5071350;28;20407;-74
2022/10/15 08:21:03;;;;;;;84.22;51.75;;;;;;;15.92;100.00;99763.84;5069824;28;20028;-74
2022/10/15 08:23:29;;;;;;;83.15;49.13;;;;;;;16.00;100.00;99767.50;5071261;28;20028;-75
2022/10/15 08:25:56;;;;;;;77.50;47.47;;;;;;;16.07;100.00;99765.81;5071242;28;20489;-80
2022/10/15 08:28:22;;;;;;;82.25;50.58;;;;;;;16.07;100.00;99755.16;5071660;28;20032;-78
2022/10/15 08:30:47;;;;;;;89.20;50.67;;;;;;;16.13;100.00;99759.78;5071334;28;20418;-78
2022/10/15 08:33:13;;;;;;;83.55;50.90;;;;;;;16.19;100.00;99765.25;5075634;28;20468;-79
2022/10/15 08:35:40;;;;;;;88.07;51.72;;;;;;;16.24;100.00;99762.91;5072649;28;20048;-79
2022/10/15 08:38:06;;;;;;;78.90;49.60;;;;;;;16.34;100.00;99768.00;5072393;28;20037;-79
2022/10/15 08:40:33;;;;;;;89.65;53.60;;;;;;;16.40;100.00;99759.31;5069647;28;20024;-79
2022/10/15 08:42:59;;;;;;;87.32;53.50;;;;;;;16.47;100.00;99768.28;5071328;28;20033;-77
2022/10/15 08:45:30;;;;;;;92.15;54.75;;;;;;;16.56;100.00;99767.19;5069366;28;20174;-75
2022/10/15 08:48:02;;;;;;;88.28;55.10;;;;;;;16.66;100.00;99767.84;5070818;28;20129;-77
2022/10/15 08:50:56;;;;;;;87.97;54.67;;;;;;;16.73;100.00;99774.13;5068397;28;20464;-79
2022/10/15 08:53:25;;;;;;;87.75;52.45;;;;;;;16.85;100.00;99771.06;5067168;28;20044;-80
2022/10/15 08:55:55;;;;;;;85.45;54.67;;;;;;;16.93;100.00;99778.97;5070795;28;20036;-77
2022/10/15 08:58:30;;;;;;;85.30;51.50;;;;;;;16.99;100.00;99775.59;5070902;28;20495;-79
2022/10/15 09:01:20;;;;;;;87.80;52.47;;;;;;;17.03;100.00;99769.72;5067520;28;20048;-78
2022/10/15 09:03:57;;;;;;;87.13;51.95;;;;;;;17.07;100.00;99770.22;5059043;28;20123;-79
2022/10/15 09:06:33;;;;;;;85.00;50.75;;;;;;;17.17;100.00;99773.47;5071890;28;20499;-79
2022/10/15 09:09:06;;;;;;;82.78;51.95;;;;;;;17.22;100.00;99773.75;5070272;28;20154;-76
2022/10/15 09:12:29;;;;;;;87.05;51.20;;;;;;;17.30;100.00;99778.19;5068715;28;20028;-76
2022/10/15 09:14:57;;;;;;;93.03;54.67;;;;;;;17.30;100.00;99787.03;5046359;28;20112;-78
2022/10/15 09:17:25;;;;;;;90.32;54.22;;;;;;;17.34;100.00;99777.66;5048186;28;20040;-78
2022/10/15 09:19:56;;;;;;;100.70;54.75;;;;;;;17.36;100.00;99786.31;5047565;28;20047;-79
2022/10/15 09:22:27;;;;;;;86.20;53.08;;;;;;;17.42;100.00;99777.56;5045922;28;20056;-76
2022/10/15 09:24:53;;;;;;;91.68;53.15;;;;;;;17.50;100.00;99777.47;5044113;28;20045;-76
2022/10/15 09:27:35;;;;;;;88.95;53.38;;;;;;;17.61;100.00;99764.75;5046800;28;20031;-79
2022/10/15 09:30:24;;;;;;;85.55;51.80;;;;;;;17.69;100.00;99764.66;5044443;28;20379;-78
2022/10/15 09:33:04;;;;;;;81.00;50.80;;;;;;;17.76;100.00;99760.25;5045201;28;20132;-80
2022/10/15 09:35:39;;;;;;;86.68;53.55;;;;;;;17.78;100.00;99768.91;5029497;28;20588;-79
2022/10/15 09:38:32;;;;;;;86.03;52.55;;;;;;;17.87;100.00;99765.13;5044615;28;20462;-81
2022/10/15 09:41:15;;;;;;;86.78;54.05;;;;;;;17.93;100.00;99767.06;5043668;28;20133;-80
2022/10/15 09:43:47;;;;;;;87.10;52.67;;;;;;;18.01;100.00;99766.97;5045462;28;20067;-81
2022/10/15 09:46:12;;;;;;;87.85;53.63;;;;;;;18.08;100.00;99765.22;5065685;28;21585;-80
2022/10/15 09:48:48;;;;;;;80.40;51.25;;;;;;;18.13;100.00;99757.47;5069224;28;20111;-82
2022/10/15 09:51:31;;;;;;;84.43;50.67;;;;;;;18.22;100.00;99750.16;5064066;28;20112;-78
2022/10/15 09:54:15;;;;;;;80.45;49.65;;;;;;;18.28;100.00;99755.59;5065592;28;20048;-81
2022/10/15 09:56:53;;;;;;;84.28;51.22;;;;;;;18.28;100.00;99744.91;5067468;28;20037;-79
2022/10/15 09:59:20;;;;;;;85.75;50.67;;;;;;;18.31;100.00;99736.53;5066132;28;20459;-79
2022/10/15 10:02:14;;;;;;;82.40;49.90;;;;;;;18.37;100.00;99735.78;5068348;28;20036;-80
2022/10/15 10:04:39;;;;;;;87.75;51.83;;;;;;;18.42;100.00;99752.06;5067127;28;20040;-79
2022/10/15 10:07:06;;;;;;;83.57;51.38;;;;;;;18.50;100.00;99759.13;5069400;28;20055;-81
2022/10/15 10:09:35;;;;;;;83.07;50.95;;;;;;;18.54;100.00;99759.59;5072682;28;20411;-79
2022/10/15 10:12:16;;;;;;;79.63;49.58;;;;;;;18.59;100.00;99757.22;5070465;28;20112;-77
2022/10/15 10:14:51;;;;;;;78.50;46.97;;;;;;;18.63;100.00;99764.66;5070106;28;20036;-78
2022/10/15 10:17:22;;;;;;;80.10;46.78;;;;;;;18.72;100.00;99768.03;5070237;28;20123;-78
2022/10/15 10:20:06;;;;;;;;;;;;;;;18.78;100.00;99761.94;5067679;28;20065;-79
2022/10/15 10:22:43;;;;;;;77.68;47.65;;;;;;;18.81;100.00;99772.25;5067493;28;20372;-77
2022/10/15 10:25:23;;;;;;;73.22;46.28;;;;;;;18.86;100.00;99775.16;5069917;28;20035;-77
2022/10/15 10:27:49;;;;;;;73.65;45.83;;;;;;;18.92;100.00;99770.91;5065692;28;20017;-76
2022/10/15 10:30:14;;;;;;;71.68;45.50;;;;;;;18.99;100.00;99764.59;5070105;28;20036;-77
2022/10/15 10:32:42;;;;;;;71.28;44.92;;;;;;;19.04;100.00;99777.41;5069827;28;20102;-75
2022/10/15 10:35:19;;;;;;;68.10;42.78;;;;;;;19.16;100.00;99771.34;5070154;28;20150;-75
2022/10/15 10:37:46;;;;;;;71.32;44.83;;;;;;;19.21;100.00;99768.91;5064961;28;20075;-77
2022/10/15 10:40:26;;;;;;;72.03;46.85;;;;;;;19.25;100.00;99764.00;5067511;28;20032;-74
2022/10/15 10:43:17;;;;;;;73.03;43.75;;;;;;;19.33;100.00;99760.34;5063583;28;20825;-77
2022/10/15 10:45:53;;;;;;;68.70;43.47;;;;;;;19.38;100.00;99763.28;5070549;28;20060;-77
2022/10/15 10:48:24;;;;;;;71.97;44.90;;;;;;;19.37;100.00;99767.00;5067655;28;20055;-76
2022/10/15 10:51:16;;;;;;;71.30;44.60;;;;;;;19.38;100.00;99764.09;5067566;28;20158;-76
2022/10/15 10:53:50;;;;;;;77.10;44.13;;;;;;;19.41;100.00;99762.91;5069954;28;20037;-77
2022/10/15 10:56:21;;;;;;;65.55;40.42;;;;;;;19.47;100.00;99748.78;5070815;28;20044;-77
2022/10/15 10:58:48;;;;;;;65.40;40.15;;;;;;;19.50;100.00;99745.69;5070671;28;20032;-73
2022/10/15 11:01:14;;;;;;;74.72;46.08;;;;;;;19.50;100.00;99745.69;5070962;28;20490;-76
2022/10/15 11:03:44;;;;;;;72.35;43.45;;;;;;;19.55;100.00;99743.28;5070521;28;20040;-76
2022/10/15 11:06:34;;;;;;;67.68;42.50;;;;;;;19.62;100.00;99749.47;5069288;28;20087;-78
2022/10/15 11:09:29;;;;;;;64.88;42.75;;;;;;;19.64;100.00;99752.78;5068827;28;20040;-78
2022/10/15 11:12:00;;;;;;;64.28;40.45;;;;;;;19.71;100.00;99748.31;5074630;28;20067;-76
2022/10/15 11:14:39;;;;;;;57.13;37.40;;;;;;;19.78;100.00;99754.53;5071381;28;20043;-77
2022/10/15 11:17:20;;;;;;;56.47;35.35;;;;;;;19.88;100.00;99748.81;5071723;28;20556;-75
2022/10/15 11:19:59;;;;;;;;;;;;;;;19.94;100.00;99748.03;5071584;28;20074;-77
2022/10/15 11:22:43;;;;;;;53.67;33.97;;;;;;;20.06;100.00;99750.97;5068535;28;19920;-78
2022/10/15 11:25:45;;;;;;;52.85;33.30;;;;;;;20.09;100.00;99745.22;4719576;28;10000488;-81
2022/10/15 11:28:30;;;;;;;57.70;36.17;;;;;;;20.11;100.00;99737.78;5071931;28;20040;-75